Flight Track Log - Related Links

Times and Time Zones

All times are in EDT time to prevent confusion due to time zone crossing. See the SWA3685 flight status page for this flight to view local times or setup timezone preferences in your user account.

Time Position Orientation Groundspeed Altitude Reporting Facility
EDT Latitude Longitude Course Direction KTS MPH feet Rate Location/Type
Mon 09:28:24 AM 33.4333 -111.9833 90° East 164 189 2,100  Level Phoenix TRACON
Mon 09:29:06 AM 33.4333 -111.9500 90° East 192 221 3,300 2,000 Climbing Phoenix TRACON
Mon 09:30:06 AM 33.4333 -111.8667 90° East 236 272 5,500 2,866 Climbing Phoenix TRACON
Mon 09:31:20 AM 33.4886 -111.7761 54° Northeast 282 325 9,700 3,111 Climbing Albuquerque Center
Mon 09:32:21 AM 33.5342 -111.6817 60° Northeast 332 382 12,500 3,016 Climbing Albuquerque Center
Mon 09:34:23 AM 33.6192 -111.4547 66° East 383 441 18,900 2,951 Climbing Albuquerque Center
Mon 09:35:24 AM 33.6658 -111.3294 66° East 408 470 21,500 2,459 Climbing Albuquerque Center
Mon 09:37:00 AM 33.7233 -111.1530 67° East  Level FlightAware Approximate
Mon 09:37:26 AM 33.7608 -111.0628 67° East 443 510 26,400  Level Albuquerque Center
Mon 09:38:27 AM 33.8114 -110.9206 67° East 460 529 28,100 1,672 Climbing Albuquerque Center
Mon 09:39:28 AM 33.8636 -110.7728 67° East 476 548 29,800 1,869 Climbing Albuquerque Center
Mon 09:40:29 AM 33.9178 -110.6203 67° East 490 564 31,900 2,361 Climbing Albuquerque Center
Mon 09:41:30 AM 33.9806 -110.4397 67° East 490 564 34,600 1,525 Climbing Albuquerque Center
Mon 09:42:31 AM 34.0297 -110.3000 67° East 480 552 35,000 131 Climbing Albuquerque Center
Mon 09:44:33 AM 34.1325 -110.0036 67° East 470 541 35,000  Level Albuquerque Center
Mon 09:46:00 AM 34.1837 -109.8424 69° East  Level FlightAware Approximate
Mon 09:48:37 AM 34.3406 -109.3928 85° East 478 550 35,000  Level Albuquerque Center
Mon 09:49:39 AM 34.3889 -109.2500 68° East 479 551 35,000  Level Albuquerque Center
Mon 09:50:40 AM 34.4308 -109.1056 71° East 476 548 35,000  Level Albuquerque Center
Mon 09:51:41 AM 34.4522 -108.9278 82° East 476 548 35,000  Level Albuquerque Center
Mon 09:52:42 AM 34.4714 -108.7761 81° East 477 549 35,000 -49 Level Albuquerque Center
Mon 09:53:00 AM 34.4284 -109.0629 79° East  Level FlightAware Approximate
Mon 09:53:43 AM 34.4903 -108.6244 81° East 477 549 34,900  Level Albuquerque Center
Mon 09:54:00 AM 34.4402 -108.9444 85° East  Level FlightAware Approximate
Mon 09:54:44 AM 34.5097 -108.4700 81° East 476 548 32,600  Level Albuquerque Center
Mon 09:55:45 AM 34.5381 -108.3164 77° East 471 542 30,100 -2,315 Descending Albuquerque Center
Mon 09:57:00 AM 34.5512 -108.1659 78° East  Level FlightAware Approximate
Mon 09:57:48 AM 34.5922 -107.9958 78° East 437 503 25,500  Level Albuquerque Center
Mon 09:58:49 AM 34.6142 -107.8611 79° East 417 480 23,600 -1,869 Descending Albuquerque Center
Mon 09:59:50 AM 34.6514 -107.7392 70° East 396 456 21,700 -1,938 Descending Albuquerque Center
Mon 10:00:25 AM 34.6817 -107.6681 63° Northeast 386 444 20,500 -1,869 Descending Albuquerque Center
Mon 10:00:51 AM 34.7028 -107.6231 60° Northeast 390 449 19,800 -1,900 Descending Albuquerque Center
Mon 10:01:25 AM 34.7344 -107.5497 62° Northeast 389 448 18,600 -1,721 Descending Albuquerque Center
Mon 10:02:53 AM 34.7992 -107.3967 63° Northeast 377 434 16,300 -1,289 Descending Albuquerque Center
Mon 10:03:26 AM 34.8267 -107.3256 65° Northeast 359 413 16,000 -387 Descending Albuquerque Center
Mon 10:03:55 AM 34.8428 -107.2933 59° Northeast 356 410 15,900 -295 Descending Albuquerque Center
Mon 10:04:27 AM 34.8683 -107.2325 63° Northeast 299 344 15,700 -645 Descending Albuquerque Center
Mon 10:05:28 AM 34.8961 -107.1453 69° East 273 314 14,900 -867 Descending Albuquerque Center
Mon 10:05:57 AM 34.8953 -107.1153 92° East 272 313 14,400 -1,522 Descending Albuquerque Center
Mon 10:06:35 AM 34.9042 -107.0425 82° East 261 300 13,200 -1,742 Descending Albuquerque Center
Mon 10:06:59 AM 34.9081 -107.0078 82° East 272 313 12,600 -1,615 Descending Albuquerque Center
Mon 10:08:00 AM 34.8763 -106.8863 98° East  Level FlightAware Approximate
Mon 10:10:03 AM 34.9436 -106.7481 90° East 261 300 7,600  Level Albuquerque Center
Mon 10:12:05 AM 35.0053 -106.6481 53° Northeast 193 222 5,800 -750 Descending Albuquerque Center
Mon 10:13:07 AM 35.0408 -106.6067 44° Northeast 178 205 5,300 -484 Descending Albuquerque Center
Mon 10:15:00 AM 35.0333 -106.6000 90° East  Level FlightAware Approximate

Login

Don't have an account? Register now (free) for customized features, flight alerts, and more!